Flugplatz Leck

Für EDXK sind keine METAR/TAF Berichte vorhanden.
Es werden die Flugwettermeldungen vom Flugplatz Westerland Sylt in 41 km Entfernung angezeigt.

Bericht für EDXW

vom 23.08. um 13:20 UTC

Wind 12 kt aus 230°

Sichtweite 10 km oder mehr

gering bewölkt in 1000 ft

Temperatur 21.0°C

Taupunkt 18.0°C

Luftfeuchtigkeit 83%

Luftdruck 1025 hPa

EDXW 231320Z 23012KT 9999 FEW010 21/18 Q1025

Prognose für EDXW

vom 23.08. um 00:00 UTC

Zwischen 00:00 UTC und 00:00 UTC

Wind 11 kt aus 250°

Sichtweite 10 km oder mehr

gering bewölkt in 1200 ft


Zwischen 00:00 UTC und 00:00 UTC zeitweise mit einer Wahrscheinlichkeit von 30%

aufgebrochene Bewölkung in 700 ft


Zwischen 00:00 und 00:00 UTC übergehend zu

Wind 4 kt aus 270°

Sichtweite 10 km oder mehr

gering bewölkt in 1200 ft

TAF EDXW 231100Z 2312/2321 25011KT 9999 FEW012 PROB30 TEMPO 2312/2321 BKN007 BECMG 2315/2317 27004KT
Impressum